Historyczne dane pomiarowe

Dodano dane terminowe – wersja testowa.

Dane z okresu 1951-2019

Wersja bazy: 1.34 [2019-03-16, lista zmian], aktualizacja planowana na 2019-04-15

Dane meteo z obszaru Polski uzyskane na podstawie danych udostępnionych przez Instytut Meteorologii i Gospodarki Wodnej – Państwowy Instytut Badawczy.

 

Wybierz Datę:    

       

TemperaturaWilgotnośćWiatrCiśnienieOpadyŚniegCzas trwania zjawisk
 Stacja t tx tn tng RH VA  wxwx mslp ppp RRR   cm mm wxwxwxwxwxwxwx
1956-11-09 -0.9 2.5 -3.1 -5.0 74.0- 6.0 1.0---- 0.0------------
1956-11-08 -1.4 4.3 -5.1 -7.8 84.3- 4.0 1.0---- 0.0------------
1956-11-07 -0.2 3.2 -3.3 -5.6 75.8- 4.7 2.3---- 0.0------------
1956-11-06 1.8 4.6 -0.1 0.8 69.5- 4.0 3.3---- 0.3------------
1956-11-05 5.7 8.4 2.8 2.6 68.8- 6.0 6.0---- 2.9------------
1956-11-04 2.5 4.1 -1.0 -8.0 74.0- 6.7 1.7---- 0.6------------
1956-11-03 1.0 5.3 -2.5 -2.7 82.5- 3.7 1.0---- 0.0------------
1956-11-02 1.4 5.6 -1.0 -5.0 85.5- 5.0 1.0---- 0.0------------
1956-11-01 2.4 3.0 -1.0 -1.5 91.0- 7.7 2.3---- 4.5------------
1956-10-31 -1.6 1.5 -8.7-11.5 74.5- 6.3 2.0---- 0.0------------
1956-10-30 -0.4 0.8 -1.6 -0.4 91.0- 5.3 3.0---- 0.0------------
1956-10-29 1.7 6.3 -0.1 3.1 87.3- 8.0 5.7---- 2.3------------
1956-10-28 7.2 8.3 5.6 5.7 85.0- 8.0 5.3---- 0.3------------
1956-10-27 6.8 10.0 1.9 -1.0 88.0- 7.3 5.0---- 5.8------------
1956-10-26 5.7 9.3 3.8 -1.1 87.8- 5.7 1.0---- 0.0------------
1956-10-25 10.5 14.3 7.4 10.1 81.0- 4.7 3.3---- 0.1------------
1956-10-24 12.6 13.5 10.1 8.6 87.0- 7.7 3.3---- 0.3------------
1956-10-23 11.0 12.0 10.1 9.9 75.0- 7.7 4.7---- 0.0------------
1956-10-22 12.0 12.9 11.2 10.5 73.3- 7.7 6.7---- 0.0------------
1956-10-21 12.7 13.8 8.6 7.6 86.3- 7.7 5.0---- 0.1------------
1956-10-20 9.6 11.6 6.3 4.2 89.3- 7.0 2.3---- 0.7------------
1956-10-19 9.4 13.2 7.4 6.6 86.5- 6.7 2.0---- 0.0------------
1956-10-18 12.2 14.0 9.6 6.6 90.8- 7.7 1.0---- 4.1------------
1956-10-17 10.0 16.0 -0.5 -3.5 63.3- 2.7 2.7---- 0.0------------
1956-10-16 5.3 13.3 -1.5 -5.2 83.0- 4.3 0.7---- 0.0------------
1956-10-15 3.1 11.0 -1.2 -6.2 85.3- 1.7 1.3---- 0.0------------
1956-10-14 8.1 10.5 4.5 2.8 67.0- 1.3 3.7---- 0.0------------
1956-10-13 10.2 11.6 9.3 7.1 82.5- 7.3 7.7---- 16.0------------
1956-10-12 10.8 12.1 9.7 8.6 84.0- 8.0 5.7---- 1.5------------
1956-10-11 11.2 12.0 6.0 4.5 82.8- 7.0 4.7---- 0.0------------
1956-10-10 5.6 9.3 -1.0 -6.1 76.8- 4.7 3.7---- 0.3------------
1956-10-09 7.2 11.7 3.7 3.7 81.0- 4.0 2.3---- 0.3------------
1956-10-08 6.3 8.5 3.7 -0.1 76.0- 6.7 2.3---- 3.0------------
1956-10-07 7.3 9.5 4.5 4.8 83.8- 5.7 4.3---- 8.1------------
1956-10-06 7.9 10.0 3.9 0.2 79.5- 6.7 1.0---- 0.2------------
1956-10-05 7.7 12.0 5.4 1.3 85.0- 4.3 1.7---- 2.8------------
1956-10-04 10.7 14.9 5.3 0.1 84.0- 4.7 2.3---- 0.0------------
1956-10-03 11.4 15.2 8.8 9.1 89.0- 5.3 3.0---- 4.6------------
1956-10-02 14.1 19.5 8.0 2.7 90.0- 7.3 2.3---- 21.1------------
1956-10-01 13.2 15.5 6.5 0.8 90.0- 5.0 1.3---- 18.8------------
1956-09-30 11.9 18.2 8.9 9.1 82.8- 1.3 3.0---- 0.0------------
1956-09-29 14.4 17.5 12.8 10.7 77.8- 3.3 5.3---- 0.0------------
1956-09-28 15.4 18.6 13.2 12.7 85.3- 6.7 4.7---- 0.0------------
1956-09-27 15.7 22.0 11.3 0.7 79.3- 3.7 1.0---- 1.7------------
1956-09-26 16.2 23.4 9.6 3.1 64.0- 0.0 1.7---- 0.3------------
1956-09-25 11.3 19.6 0.9 -2.9 67.5- 0.0 1.0---- 0.0------------
1956-09-24 8.1 16.5 2.5 -1.9 71.3- 0.0 1.7---- 0.0------------
1956-09-23 11.0 17.0 7.6 2.5 74.3- 3.0 1.7---- 0.0------------
1956-09-22 11.7 18.4 4.0 0.1 80.5- 0.7 1.3---- 0.0------------
1956-09-21 8.6 18.6 1.0 0.7 84.0- 1.3 1.0---- 0.0------------
1956-09-20 9.3 16.5 4.1 1.6 84.0- 4.0 1.0---- 0.0------------
1956-09-19 7.8 16.4 -0.8 -1.5 82.8- 3.7 1.3---- 0.0------------
1956-09-18 8.0 14.3 4.7 1.9 86.3- 2.7 1.3---- 0.0------------
1956-09-17 10.0 13.9 3.7 0.1 74.8- 4.7 3.3---- 1.6------------
1956-09-16 9.8 13.7 7.9 6.0 83.5- 5.3 5.7---- 1.6------------
1956-09-15 11.2 15.2 7.4 3.0 78.5- 5.0 3.0---- 0.0------------
1956-09-14 9.6 17.3 1.6 -0.9 85.5- 3.7 2.0---- 0.4------------
1956-09-13 8.7 12.0 7.5 5.9 90.0- 5.0 2.3---- 5.6------------
1956-09-12 11.4 14.8 8.5 9.0 78.3- 5.0 5.0---- 3.6------------
1956-09-11 14.4 18.4 10.9 9.1 89.8- 6.0 1.0---- 10.6------------
267.1 ms

 

Źródłem pochodzenia danych jest Instytut Meteorologii i Gospodarki Wodnej – Państwowy Instytut Badawczy. Dane Instytutu Meteorologii i Gospodarki Wodnej – Państwowego Instytutu Badawczego zostały przetworzone.

Dane źródłowe można odnaleźć na stronie https://dane.imgw.pl